Portada
METAR-TAF:

METAR-TAF

Aeropuertos :

Aeropuerto Dallas Love

Dallas, Texas, Estados Unidos

latitud: 32-51-09N, longitud: 096-51-20W, altitud: 148 m

Observación

El informe se hizo hace 13 minutos, a las 14:53 UTC
Viento 8 kt del sur
Temperatura 16°C
Humedad 63%
Presión 1017 hPa
Visibilidad: 16.1 km
Cielo nuboso a una altura de 23000 ft
Cielo nuboso a una altura de 28000 ft

METAR: KDAL 011453Z 18008KT 10SM BKN230 BKN280 16/09 A3003 RMK AO2 SLP165 T01560094 51017

Hora: 10:06 (15:06 UTC)

Pronóstico

El informe se hizo hace 8 minutos, a las 14:58 UTC
Pronóstico válido del 01 a las 15 UTC al 02 a las 12 UTC
Viento 14 kt del sur-sureste
Visibilidad: 10 km
Cielo nuboso a una altura de 15000 ft
Cielo nuboso a una altura de 25000 ft

TAF: KDAL 011458Z 0115/0212 16014KT P6SM BKN150 BKN250

Observaciones y pronósticos meteorológicos de más de 4000 aeropuertos (mensajes METAR y TAF).

Los puntos amarillos y rojos representan las estaciones disponibles.

Ponga el ratón en el punto deseado para ver el nombre de la estación.

Haga clic para ver las observaciones y los pronósticos meteorológicos.

Para cambiar el mapa : haga clic en los botones verdes con una cruz de color negro para hacer un zoom, en el botón verde con un guión para alejar o en las flechas verdes para mapas adyacentes.


METAR-TAF: